createdAt,value
2019-02-18T00:01:58.364Z,17.23
2019-02-18T00:04:26.752Z,17.17
2019-02-18T00:09:28.860Z,15.10
2019-02-18T00:11:57.249Z,15.67
2019-02-18T00:14:25.631Z,15.80
2019-02-18T00:16:54.017Z,16.50
2019-02-18T00:19:41.647Z,15.60
2019-02-18T00:22:10.029Z,15.77
2019-02-18T00:24:38.407Z,15.33
2019-02-18T00:27:26.044Z,14.23
2019-02-18T00:29:54.432Z,14.20
2019-02-18T00:32:42.127Z,15.90
2019-02-18T00:38:03.816Z,16.50
2019-02-18T00:40:32.199Z,16.10
2019-02-18T00:43:40.718Z,15.73
2019-02-18T00:51:16.985Z,15.73
2019-02-18T00:53:45.365Z,15.00
2019-02-18T00:56:13.761Z,16.23
2019-02-18T00:59:01.253Z,14.67
2019-02-18T01:01:48.890Z,14.55
2019-02-18T01:04:17.285Z,16.73
2019-02-18T01:06:45.667Z,14.80
2019-02-18T01:09:33.385Z,15.40
2019-02-18T01:12:01.781Z,14.10
2019-02-18T01:14:30.162Z,14.63
2019-02-18T01:17:17.888Z,17.07
2019-02-18T01:19:46.273Z,17.43
2019-02-18T01:22:14.652Z,17.40
2019-02-18T01:25:02.144Z,16.07
2019-02-18T01:27:30.538Z,17.33
2019-02-18T01:30:18.175Z,15.30
2019-02-18T01:33:05.676Z,16.40
2019-02-18T01:35:53.312Z,16.50
2019-02-18T01:38:40.809Z,16.10
2019-02-18T01:41:28.549Z,14.60
2019-02-18T01:43:56.926Z,15.90
2019-02-18T01:46:25.560Z,14.53
2019-02-18T01:48:53.944Z,15.40
2019-02-18T01:51:22.334Z,14.23
2019-02-18T01:54:09.969Z,14.20
2019-02-18T01:59:31.461Z,15.30
2019-02-18T02:01:59.858Z,15.50
2019-02-18T02:04:28.232Z,14.17
2019-02-18T02:06:56.620Z,15.73
2019-02-18T02:12:12.467Z,15.23
2019-02-18T02:15:00.208Z,15.17
2019-02-18T02:17:28.558Z,15.60
2019-02-18T02:25:38.100Z,17.40
2019-02-18T02:28:06.487Z,14.50
2019-02-18T02:30:34.872Z,16.37
2019-02-18T02:35:37.683Z,15.20
2019-02-18T02:38:08.070Z,16.27
2019-02-18T02:40:36.170Z,15.77
2019-02-18T02:45:38.401Z,15.90
2019-02-18T02:48:26.037Z,14.43
2019-02-18T02:50:54.422Z,14.60
2019-02-18T02:53:42.054Z,13.73
2019-02-18T02:56:29.561Z,13.67
2019-02-18T02:58:57.947Z,13.00
2019-02-18T03:01:26.340Z,13.97
2019-02-18T03:04:13.831Z,15.70
2019-02-18T03:09:16.175Z,13.97
2019-02-18T03:12:03.900Z,14.23
2019-02-18T03:15:12.193Z,15.30
2019-02-18T03:17:59.693Z,13.20
2019-02-18T03:23:15.525Z,13.67
2019-02-18T03:26:23.907Z,13.70
2019-02-18T03:29:30.870Z,13.97
2019-02-18T03:32:18.518Z,12.80
2019-02-18T03:34:46.896Z,14.57
2019-02-18T03:39:49.097Z,14.43
2019-02-18T03:42:17.475Z,14.43
2019-02-18T03:45:04.968Z,14.07
2019-02-18T03:47:33.352Z,13.80
2019-02-18T03:50:01.732Z,13.10
2019-02-18T03:52:49.370Z,12.67
2019-02-18T03:55:37.009Z,14.30
2019-02-18T03:58:05.391Z,12.83
2019-02-18T04:00:53.021Z,13.20
2019-02-18T04:03:21.406Z,14.40
2019-02-18T04:06:09.035Z,13.03
2019-02-18T04:11:30.984Z,12.77
2019-02-18T04:13:59.362Z,12.20
2019-02-18T04:16:47.097Z,12.30
2019-02-18T04:22:27.863Z,12.37
2019-02-18T04:25:26.222Z,12.40
2019-02-18T04:27:56.127Z,14.03
2019-02-18T04:34:02.954Z,13.10
2019-02-18T04:39:26.549Z,11.67
2019-02-18T04:45:02.217Z,12.20
2019-02-18T04:47:59.897Z,13.20
2019-02-18T04:53:32.891Z,12.87
2019-02-18T04:56:10.239Z,12.50
2019-02-18T05:02:04.824Z,12.60
2019-02-18T05:07:47.619Z,12.47
2019-02-18T05:16:55.257Z,13.17
2019-02-18T05:20:07.452Z,13.20
2019-02-18T05:22:54.942Z,13.80
2019-02-18T05:25:23.411Z,14.50
2019-02-18T05:28:11.034Z,13.80
2019-02-18T05:30:58.658Z,12.87
2019-02-18T05:33:27.100Z,12.77
2019-02-18T05:35:56.050Z,13.50
2019-02-18T05:38:25.647Z,14.30
2019-02-18T05:40:54.052Z,14.50
2019-02-18T05:43:41.691Z,13.67
2019-02-18T05:46:10.127Z,12.07
2019-02-18T05:48:57.791Z,13.53
2019-02-18T05:51:45.516Z,14.77
2019-02-18T05:54:13.899Z,14.50
2019-02-18T05:56:42.280Z,13.37
2019-02-18T05:59:10.669Z,14.50
2019-02-18T06:01:58.654Z,14.93
2019-02-18T06:04:27.052Z,14.47
2019-02-18T06:06:55.486Z,12.70
2019-02-18T06:09:43.005Z,13.63
2019-02-18T06:12:30.632Z,15.10
2019-02-18T06:14:59.032Z,14.83
2019-02-18T06:17:27.400Z,15.10
2019-02-18T06:20:14.905Z,14.40
2019-02-18T06:22:43.284Z,14.47
2019-02-18T06:25:11.677Z,16.53
2019-02-18T06:33:02.056Z,14.70
2019-02-18T06:35:30.450Z,17.57
2019-02-18T06:40:46.583Z,13.10
2019-02-18T06:43:15.202Z,13.13
2019-02-18T06:51:27.139Z,11.30
2019-02-18T06:54:14.873Z,12.67
2019-02-18T06:57:02.370Z,11.87
2019-02-18T07:02:25.322Z,12.40
2019-02-18T07:05:12.831Z,12.50
2019-02-18T07:08:00.325Z,11.70
2019-02-18T07:10:47.828Z,11.50
2019-02-18T07:13:16.211Z,11.83
2019-02-18T07:15:44.599Z,11.00
2019-02-18T07:18:12.976Z,9.90
2019-02-18T07:20:41.436Z,10.00
2019-02-18T07:23:09.813Z,9.63
2019-02-18T07:25:38.214Z,11.17
2019-02-18T07:28:06.589Z,10.20
2019-02-18T07:30:35.011Z,9.23
2019-02-18T07:33:03.389Z,10.20
2019-02-18T07:35:31.783Z,9.87
2019-02-18T07:38:00.167Z,10.67
2019-02-18T07:40:28.562Z,10.37
2019-02-18T07:42:56.953Z,11.43
2019-02-18T07:45:25.616Z,10.60
2019-02-18T07:47:54.007Z,11.00
2019-02-18T07:50:22.417Z,13.70
2019-02-18T07:52:50.796Z,11.97
2019-02-18T07:55:19.188Z,13.07
2019-02-18T07:57:47.601Z,12.37
2019-02-18T08:00:16.010Z,12.27
2019-02-18T08:02:44.378Z,12.40
2019-02-18T08:05:12.773Z,13.87
2019-02-18T08:07:41.163Z,13.47
2019-02-18T08:10:12.498Z,14.23
2019-02-18T08:12:41.028Z,14.00
2019-02-18T08:15:10.560Z,13.47
2019-02-18T08:17:38.949Z,14.53
2019-02-18T08:20:09.889Z,12.23
2019-02-18T08:22:38.260Z,14.07
2019-02-18T08:25:09.560Z,12.20
2019-02-18T08:27:38.043Z,12.37
2019-02-18T08:30:12.670Z,11.70
2019-02-18T08:32:41.055Z,12.10
2019-02-18T08:35:09.575Z,12.70
2019-02-18T08:37:37.987Z,12.77
2019-02-18T08:40:08.513Z,13.90
2019-02-18T08:42:36.904Z,15.30
2019-02-18T08:45:08.502Z,14.90
2019-02-18T08:47:36.898Z,13.90
2019-02-18T08:50:08.121Z,13.60
2019-02-18T08:52:36.515Z,13.30
2019-02-18T08:55:07.818Z,13.30
2019-02-18T08:57:36.210Z,12.37
2019-02-18T09:00:08.376Z,12.53
2019-02-18T09:02:36.770Z,12.83
2019-02-18T09:05:07.342Z,13.83
2019-02-18T09:07:35.682Z,12.77
2019-02-18T09:10:06.405Z,12.43
2019-02-18T09:12:34.845Z,12.17
2019-02-18T09:15:03.501Z,12.13
2019-02-18T09:17:32.713Z,11.53
2019-02-18T09:20:01.103Z,12.20
2019-02-18T09:22:33.522Z,11.77
2019-02-18T09:25:03.539Z,10.40
2019-02-18T09:27:32.262Z,10.87
2019-02-18T09:30:00.654Z,11.30
2019-02-18T09:32:29.322Z,12.33
2019-02-18T09:35:02.059Z,11.90
2019-02-18T09:37:27.826Z,11.17
2019-02-18T09:39:56.206Z,11.50
2019-02-18T09:42:26.590Z,11.40
2019-02-18T09:44:55.124Z,11.17
2019-02-18T09:47:23.749Z,10.50
2019-02-18T09:49:52.137Z,9.77
2019-02-18T09:52:20.520Z,10.60
2019-02-18T09:54:48.904Z,10.80
2019-02-18T09:57:17.298Z,11.60
2019-02-18T09:59:45.679Z,10.57
2019-02-18T10:02:14.102Z,10.20
2019-02-18T10:04:42.481Z,9.90
2019-02-18T10:07:10.870Z,11.07
2019-02-18T10:09:39.255Z,12.13
2019-02-18T10:12:17.810Z,11.90
2019-02-18T10:14:37.753Z,11.57
2019-02-18T10:17:06.141Z,11.70
2019-02-18T10:19:34.519Z,10.57
2019-02-18T10:22:02.913Z,10.93
2019-02-18T10:24:31.292Z,11.37
2019-02-18T10:26:59.685Z,11.13
2019-02-18T10:29:28.077Z,12.07
2019-02-18T10:31:56.473Z,10.40
2019-02-18T10:34:24.849Z,10.73
2019-02-18T10:36:53.336Z,11.30
2019-02-18T10:39:21.701Z,9.70
2019-02-18T10:41:50.161Z,10.97
2019-02-18T10:44:18.549Z,10.93
2019-02-18T10:46:46.947Z,9.97
2019-02-18T10:49:19.755Z,11.00
2019-02-18T10:51:45.440Z,11.30
2019-02-18T10:54:13.819Z,10.63
2019-02-18T10:56:42.204Z,11.70
2019-02-18T10:59:10.599Z,11.90
2019-02-18T11:01:38.982Z,11.43
2019-02-18T11:04:07.375Z,11.53
2019-02-18T11:06:35.757Z,11.33
2019-02-18T11:09:08.143Z,12.50
2019-02-18T11:11:36.527Z,11.93
2019-02-18T11:14:04.919Z,11.40
2019-02-18T11:16:33.678Z,11.03
2019-02-18T11:19:02.069Z,12.23
2019-02-18T11:21:30.799Z,12.00
2019-02-18T11:23:59.195Z,11.30
2019-02-18T11:26:27.584Z,11.63
2019-02-18T11:28:55.983Z,11.93
2019-02-18T11:31:24.744Z,12.07
2019-02-18T11:33:53.136Z,12.30
2019-02-18T11:36:21.517Z,12.07
2019-02-18T11:38:49.904Z,12.40
2019-02-18T11:41:27.052Z,12.27
2019-02-18T11:43:48.415Z,13.40
2019-02-18T11:46:17.089Z,12.30
2019-02-18T11:48:45.491Z,13.03
2019-02-18T11:51:13.932Z,12.50
2019-02-18T11:53:42.320Z,12.30
2019-02-18T11:56:10.706Z,11.17
2019-02-18T11:58:39.099Z,12.17
2019-02-18T12:01:07.959Z,13.63
2019-02-18T12:03:36.451Z,12.13
2019-02-18T12:06:04.834Z,12.00
2019-02-18T12:08:33.227Z,12.33
2019-02-18T12:11:01.639Z,13.37
2019-02-18T12:13:30.001Z,12.80
2019-02-18T12:15:58.381Z,12.97
2019-02-18T12:18:27.156Z,12.90
2019-02-18T12:20:55.536Z,10.93
2019-02-18T12:23:23.931Z,11.70
2019-02-18T12:25:52.311Z,12.10
2019-02-18T12:28:20.706Z,12.67
2019-02-18T12:30:49.088Z,12.13
2019-02-18T12:33:17.482Z,12.30
2019-02-18T12:35:46.244Z,12.37
2019-02-18T12:38:14.637Z,13.03
2019-02-18T12:40:43.097Z,13.43
2019-02-18T12:43:11.489Z,12.33
2019-02-18T12:45:39.876Z,12.73
2019-02-18T12:48:08.275Z,12.37
2019-02-18T12:50:36.835Z,11.70
2019-02-18T12:53:05.393Z,12.00
2019-02-18T12:55:34.080Z,12.90
2019-02-18T12:58:02.749Z,12.43
2019-02-18T13:00:31.140Z,12.77
2019-02-18T13:02:59.602Z,13.93
2019-02-18T13:05:27.994Z,12.33
2019-02-18T13:07:56.383Z,13.27
2019-02-18T13:10:34.479Z,11.80
2019-02-18T13:12:55.280Z,12.57
2019-02-18T13:15:23.670Z,12.47
2019-02-18T13:17:52.049Z,13.00
2019-02-18T13:20:20.507Z,12.10
2019-02-18T13:22:48.912Z,14.40
2019-02-18T13:25:17.328Z,13.50
2019-02-18T13:28:08.594Z,13.73
2019-02-18T13:30:36.692Z,12.20
2019-02-18T13:33:05.090Z,12.77
2019-02-18T13:38:40.047Z,13.00
2019-02-18T13:41:08.470Z,12.83
2019-02-18T13:43:55.997Z,13.33
2019-02-18T13:49:11.866Z,12.60
2019-02-18T13:54:27.757Z,13.43
2019-02-18T13:57:15.557Z,12.73
2019-02-18T14:00:03.089Z,12.90
2019-02-18T14:05:58.850Z,11.93
2019-02-18T14:09:07.188Z,12.60
2019-02-18T14:11:35.628Z,12.13
2019-02-18T14:14:23.290Z,14.37
2019-02-18T14:16:51.675Z,13.47
2019-02-18T14:19:39.327Z,12.47
2019-02-18T14:22:26.968Z,11.67
2019-02-18T14:24:55.413Z,13.20
2019-02-18T14:27:23.822Z,11.23
2019-02-18T14:32:28.351Z,12.53
2019-02-18T14:34:56.764Z,11.87
2019-02-18T14:40:52.593Z,13.03
2019-02-18T14:43:40.244Z,12.90
2019-02-18T14:49:56.647Z,13.80
2019-02-18T14:55:54.069Z,11.47
2019-02-18T14:58:22.453Z,12.87
2019-02-18T15:03:26.882Z,13.93
2019-02-18T15:05:55.275Z,13.67
2019-02-18T15:08:24.013Z,13.10
2019-02-18T15:10:52.417Z,12.30
2019-02-18T15:13:40.052Z,12.47
2019-02-18T15:16:08.458Z,12.20
2019-02-18T15:18:37.039Z,12.80
2019-02-18T15:21:05.425Z,12.97
2019-02-18T15:23:33.818Z,12.67
2019-02-18T15:26:03.957Z,12.80
2019-02-18T15:28:32.341Z,12.97
2019-02-18T15:31:00.784Z,13.27
2019-02-18T15:33:29.205Z,12.87
2019-02-18T15:35:57.615Z,12.73
2019-02-18T15:38:26.112Z,12.70
2019-02-18T15:40:54.875Z,12.60
2019-02-18T15:43:23.265Z,13.50
2019-02-18T15:45:51.682Z,13.57
2019-02-18T15:48:20.094Z,12.57
2019-02-18T15:50:48.504Z,12.30
2019-02-18T15:53:36.129Z,12.43
2019-02-18T15:59:18.416Z,12.77
2019-02-18T16:02:26.778Z,13.50
2019-02-18T16:05:14.290Z,11.27
2019-02-18T16:13:04.027Z,12.03
2019-02-18T16:15:32.422Z,12.30
2019-02-18T16:18:00.805Z,13.40
2019-02-18T16:20:48.444Z,11.20
2019-02-18T16:23:36.072Z,14.23
2019-02-18T16:26:23.579Z,12.83
2019-02-18T16:29:11.095Z,11.43
2019-02-18T16:31:58.586Z,14.00
2019-02-18T16:34:26.974Z,12.30
2019-02-18T16:37:14.614Z,12.97
2019-02-18T16:39:42.992Z,12.10
2019-02-18T16:42:13.105Z,11.63
2019-02-18T16:45:00.824Z,13.80
2019-02-18T16:47:48.334Z,11.53
2019-02-18T16:50:16.718Z,12.50
2019-02-18T16:53:04.356Z,12.30
2019-02-18T16:58:08.111Z,12.40
2019-02-18T17:00:57.833Z,11.57
2019-02-18T17:03:45.199Z,11.73
2019-02-18T17:06:13.593Z,12.83
2019-02-18T17:09:01.221Z,13.80
2019-02-18T17:11:29.614Z,13.60
2019-02-18T17:13:59.719Z,15.60
2019-02-18T17:16:47.357Z,15.70
2019-02-18T17:19:15.739Z,15.07
2019-02-18T17:22:03.379Z,15.10
2019-02-18T17:24:51.006Z,15.67
2019-02-18T17:27:19.398Z,18.30
2019-02-18T17:29:47.782Z,18.00
2019-02-18T17:35:12.019Z,18.00
2019-02-18T17:37:40.651Z,16.80
2019-02-18T17:40:48.961Z,15.80
2019-02-18T17:43:17.386Z,22.27
2019-02-18T17:46:05.023Z,21.47
2019-02-18T17:48:33.453Z,25.70
2019-02-18T17:51:20.975Z,24.77
2019-02-18T17:56:42.968Z,21.60
2019-02-18T17:59:11.382Z,22.17
2019-02-18T18:04:33.577Z,23.63
2019-02-18T18:07:21.226Z,20.23
2019-02-18T18:09:49.603Z,17.60
2019-02-18T18:12:38.789Z,17.00
2019-02-18T18:15:47.087Z,18.60
2019-02-18T18:18:15.510Z,18.30
2019-02-18T18:21:03.014Z,18.67
2019-02-18T18:23:31.464Z,19.50
2019-02-18T18:26:19.097Z,17.93
2019-02-18T18:28:47.523Z,17.67
2019-02-18T18:31:35.252Z,16.70
2019-02-18T18:34:03.664Z,15.97
2019-02-18T18:41:53.367Z,18.47
2019-02-18T18:44:41.004Z,19.10
2019-02-18T18:47:09.427Z,18.27
2019-02-18T18:49:57.070Z,16.83
2019-02-18T18:52:25.479Z,15.60
2019-02-18T18:55:13.128Z,14.33
2019-02-18T18:57:41.552Z,14.40
2019-02-18T19:03:10.634Z,12.63
2019-02-18T19:05:39.052Z,15.53
2019-02-18T19:08:07.450Z,14.07
2019-02-18T19:10:55.081Z,13.80
2019-02-18T19:13:25.204Z,15.50
2019-02-18T19:16:12.832Z,15.57
2019-02-18T19:18:42.430Z,15.00
2019-02-18T19:21:11.341Z,15.10
2019-02-18T19:23:41.457Z,16.40
2019-02-18T19:26:29.090Z,16.23
2019-02-18T19:28:57.569Z,15.17
2019-02-18T19:31:25.954Z,17.57
2019-02-18T19:36:30.227Z,16.77
2019-02-18T19:38:58.617Z,16.73
2019-02-18T19:41:27.062Z,17.13
2019-02-18T19:43:55.454Z,17.70
2019-02-18T19:46:23.835Z,16.53
2019-02-18T19:48:52.506Z,17.47
2019-02-18T19:51:20.908Z,15.87
2019-02-18T19:53:49.303Z,14.60
2019-02-18T19:56:17.685Z,13.57
2019-02-18T19:58:46.110Z,14.17
2019-02-18T20:01:14.489Z,14.67
2019-02-18T20:03:43.149Z,14.20
2019-02-18T20:06:11.535Z,15.73
2019-02-18T20:08:39.923Z,15.67
2019-02-18T20:11:08.306Z,15.53
2019-02-18T20:13:36.696Z,16.00
2019-02-18T20:16:05.177Z,16.10
2019-02-18T20:18:33.920Z,14.93
2019-02-18T20:21:02.295Z,15.50
2019-02-18T20:23:30.673Z,15.03
2019-02-18T20:25:59.069Z,14.03
2019-02-18T20:28:27.447Z,13.80
2019-02-18T20:30:55.833Z,16.53
2019-02-18T20:33:24.210Z,16.50
2019-02-18T20:35:52.601Z,16.20
2019-02-18T20:38:21.087Z,16.53
2019-02-18T20:40:49.479Z,14.90
2019-02-18T20:43:17.859Z,13.50
2019-02-18T20:45:46.244Z,14.77
2019-02-18T20:48:14.713Z,14.77
2019-02-18T20:50:43.418Z,14.20
2019-02-18T20:53:11.800Z,14.93
2019-02-18T20:55:40.190Z,16.80
2019-02-18T20:58:08.574Z,14.37
2019-02-18T21:00:36.968Z,15.30
2019-02-18T21:03:05.350Z,14.87
2019-02-18T21:05:34.212Z,15.53
2019-02-18T21:08:02.766Z,14.80
2019-02-18T21:10:31.149Z,15.80
2019-02-18T21:12:59.627Z,16.30
2019-02-18T21:15:28.014Z,14.73
2019-02-18T21:17:56.386Z,15.47
2019-02-18T21:20:24.777Z,15.00
2019-02-18T21:22:53.193Z,15.80
2019-02-18T21:25:21.556Z,15.43
2019-02-18T21:27:49.933Z,16.97
2019-02-18T21:30:18.595Z,16.73
2019-02-18T21:32:46.972Z,18.57
2019-02-18T21:35:15.355Z,19.37
2019-02-18T21:37:44.083Z,18.80
2019-02-18T21:40:12.917Z,17.73
2019-02-18T21:42:41.297Z,18.10
2019-02-18T21:45:16.531Z,17.73
2019-02-18T21:47:44.908Z,14.80
2019-02-18T21:50:13.374Z,14.97
2019-02-18T21:52:41.746Z,15.60
2019-02-18T21:55:11.587Z,15.27
2019-02-18T21:57:40.276Z,14.60
2019-02-18T22:00:13.349Z,14.33
2019-02-18T22:02:41.726Z,14.37
2019-02-18T22:05:10.103Z,14.13
2019-02-18T22:07:38.493Z,14.13
2019-02-18T22:10:08.809Z,14.37
2019-02-18T22:12:37.194Z,14.73
2019-02-18T22:15:07.615Z,14.23
2019-02-18T22:17:36.021Z,12.20
2019-02-18T22:20:05.458Z,13.60
2019-02-18T22:22:34.122Z,14.37
2019-02-18T22:25:02.503Z,13.97
2019-02-18T22:27:30.891Z,12.43
2019-02-18T22:29:59.281Z,12.40
2019-02-18T22:32:27.677Z,13.07
2019-02-18T22:34:56.052Z,12.47
2019-02-18T22:37:24.439Z,13.27
2019-02-18T22:39:53.091Z,14.07
2019-02-18T22:42:21.480Z,11.97
2019-02-18T22:44:49.856Z,12.80
2019-02-18T22:47:18.243Z,12.30
2019-02-18T22:49:46.667Z,12.80
2019-02-18T22:52:15.054Z,11.23
2019-02-18T22:54:43.438Z,12.10
2019-02-18T22:57:12.339Z,11.10
2019-02-18T22:59:40.717Z,11.67
2019-02-18T23:02:09.543Z,10.50
2019-02-18T23:04:37.923Z,12.80
2019-02-18T23:07:06.311Z,10.70
2019-02-18T23:09:34.689Z,11.77
2019-02-18T23:12:03.082Z,12.93
2019-02-18T23:14:31.472Z,11.23
2019-02-18T23:16:59.864Z,11.03
2019-02-18T23:19:28.263Z,10.20
2019-02-18T23:21:56.651Z,11.17
2019-02-18T23:24:25.096Z,9.77
2019-02-18T23:26:53.487Z,12.70
2019-02-18T23:29:21.862Z,9.60
2019-02-18T23:31:50.260Z,10.27
2019-02-18T23:34:18.707Z,10.43
2019-02-18T23:36:47.105Z,9.30
2019-02-18T23:39:15.488Z,10.57
2019-02-18T23:41:43.956Z,10.17
2019-02-18T23:44:12.336Z,9.70
2019-02-18T23:46:40.727Z,9.50
2019-02-18T23:49:09.098Z,9.50
2019-02-18T23:51:37.490Z,10.40
2019-02-18T23:54:05.861Z,8.57
2019-02-18T23:56:34.244Z,9.77
2019-02-18T23:59:02.624Z,10.10
